createdAt,value
2019-01-02T00:00:49.663Z,1009.72
2019-01-02T00:01:49.647Z,1009.74
2019-01-02T00:02:49.646Z,1009.74
2019-01-02T00:03:49.632Z,1009.77
2019-01-02T00:04:49.676Z,1009.67
2019-01-02T00:05:49.618Z,1009.71
2019-01-02T00:06:49.597Z,1009.70
2019-01-02T00:07:49.605Z,1009.73
2019-01-02T00:08:49.594Z,1009.72
2019-01-02T00:09:49.597Z,1009.53
2019-01-02T00:10:49.602Z,1009.61
2019-01-02T00:11:49.543Z,1009.69
2019-01-02T00:12:49.532Z,1009.68
2019-01-02T00:13:49.534Z,1009.76
2019-01-02T00:14:49.520Z,1009.66
2019-01-02T00:15:49.511Z,1009.75
2019-01-02T00:16:49.487Z,1009.66
2019-01-02T00:17:49.485Z,1009.81
2019-01-02T00:18:49.479Z,1009.76
2019-01-02T00:19:49.467Z,1009.75
2019-01-02T00:20:49.451Z,1009.85
2019-01-02T00:21:49.440Z,1009.82
2019-01-02T00:22:49.432Z,1009.81
2019-01-02T00:23:49.484Z,1009.88
2019-01-02T00:24:49.412Z,1009.75
2019-01-02T00:25:49.395Z,1009.89
2019-01-02T00:26:49.402Z,1009.84
2019-01-02T00:27:49.404Z,1009.82
2019-01-02T00:28:49.363Z,1009.91
2019-01-02T00:29:49.354Z,1009.86
2019-01-02T00:30:49.365Z,1009.87
2019-01-02T00:31:49.331Z,1009.85
2019-01-02T00:32:49.340Z,1009.82
2019-01-02T00:33:49.311Z,1009.90
2019-01-02T00:34:49.290Z,1009.82
2019-01-02T00:35:49.294Z,1009.90
2019-01-02T00:36:49.272Z,1009.80
2019-01-02T00:37:49.262Z,1009.94
2019-01-02T00:38:49.267Z,1009.80
2019-01-02T00:39:49.256Z,1009.93
2019-01-02T00:40:49.227Z,1009.90
2019-01-02T00:41:49.212Z,1009.88
2019-01-02T00:42:49.217Z,1009.88
2019-01-02T00:43:49.202Z,1009.86
2019-01-02T00:44:49.328Z,1009.94
2019-01-02T00:45:49.214Z,1009.87
2019-01-02T00:46:49.166Z,1009.82
2019-01-02T00:47:49.231Z,1009.86
2019-01-02T00:48:49.144Z,1009.96
2019-01-02T00:49:49.157Z,1009.89
2019-01-02T00:50:49.143Z,1009.96
2019-01-02T00:51:49.143Z,1009.83
2019-01-02T00:52:49.135Z,1009.95
2019-01-02T00:53:49.099Z,1010.04
2019-01-02T00:54:49.190Z,1010.04
2019-01-02T00:55:49.184Z,1009.92
2019-01-02T00:56:49.078Z,1009.99
2019-01-02T00:57:49.089Z,1010.04
2019-01-02T00:58:49.047Z,1010.03
2019-01-02T00:59:49.038Z,1010.12
2019-01-02T01:00:49.024Z,1010.13
2019-01-02T01:01:49.024Z,1010.17
2019-01-02T01:02:49.008Z,1010.13
2019-01-02T01:03:49.012Z,1010.11
2019-01-02T01:04:48.984Z,1010.19
2019-01-02T01:05:48.975Z,1010.14
2019-01-02T01:06:48.965Z,1010.11
2019-01-02T01:07:48.969Z,1010.16
2019-01-02T01:08:48.947Z,1010.09
2019-01-02T01:09:48.946Z,1010.12
2019-01-02T01:10:48.914Z,1010.16
2019-01-02T01:11:48.901Z,1010.23
2019-01-02T01:12:48.890Z,1010.19
2019-01-02T01:13:48.883Z,1010.08
2019-01-02T01:14:48.886Z,1010.14
2019-01-02T01:15:48.908Z,1010.03
2019-01-02T01:16:48.858Z,1010.11
2019-01-02T01:17:48.861Z,1010.23
2019-01-02T01:18:48.854Z,1010.17
2019-01-02T01:19:48.827Z,1010.14
2019-01-02T01:20:48.846Z,1010.23
2019-01-02T01:21:48.805Z,1010.14
2019-01-02T01:22:48.789Z,1010.14
2019-01-02T01:23:48.783Z,1010.24
2019-01-02T01:24:48.788Z,1010.19
2019-01-02T01:25:48.761Z,1010.18
2019-01-02T01:26:48.798Z,1010.27
2019-01-02T01:27:48.749Z,1010.34
2019-01-02T01:28:48.728Z,1010.37
2019-01-02T01:29:48.722Z,1010.22
2019-01-02T01:30:48.706Z,1010.30
2019-01-02T01:31:48.711Z,1010.31
2019-01-02T01:32:48.725Z,1010.34
2019-01-02T01:33:48.716Z,1010.29
2019-01-02T01:34:48.661Z,1010.39
2019-01-02T01:35:48.799Z,1010.29
2019-01-02T01:36:48.654Z,1010.35
2019-01-02T01:37:48.640Z,1010.31
2019-01-02T01:38:48.676Z,1010.34
2019-01-02T01:39:48.623Z,1010.41
2019-01-02T01:40:48.597Z,1010.39
2019-01-02T01:41:48.590Z,1010.42
2019-01-02T01:42:48.589Z,1010.30
2019-01-02T01:43:48.569Z,1010.29
2019-01-02T01:44:48.565Z,1010.28
2019-01-02T01:45:48.543Z,1010.32
2019-01-02T01:46:48.535Z,1010.37
2019-01-02T01:47:48.537Z,1010.35
2019-01-02T01:48:48.534Z,1010.29
2019-01-02T01:49:48.503Z,1010.37
2019-01-02T01:50:48.501Z,1010.35
2019-01-02T01:51:48.580Z,1010.29
2019-01-02T01:52:48.484Z,1010.25
2019-01-02T01:53:48.547Z,1010.27
2019-01-02T01:54:48.452Z,1010.31
2019-01-02T01:55:48.433Z,1010.41
2019-01-02T01:56:48.509Z,1010.36
2019-01-02T01:57:48.499Z,1010.31
2019-01-02T01:58:48.402Z,1010.40
2019-01-02T01:59:48.503Z,1010.39
2019-01-02T02:00:48.411Z,1010.36
2019-01-02T02:01:48.372Z,1010.45
2019-01-02T02:02:48.376Z,1010.43
2019-01-02T02:03:48.358Z,1010.34
2019-01-02T02:04:48.342Z,1010.44
2019-01-02T02:05:48.337Z,1010.38
2019-01-02T02:06:48.342Z,1010.40
2019-01-02T02:07:48.309Z,1010.44
2019-01-02T02:08:48.310Z,1010.41
2019-01-02T02:09:48.300Z,1010.39
2019-01-02T02:10:48.299Z,1010.50
2019-01-02T02:11:48.326Z,1010.45
2019-01-02T02:12:48.341Z,1010.36
2019-01-02T02:13:48.246Z,1010.42
2019-01-02T02:14:48.246Z,1010.45
2019-01-02T02:15:48.251Z,1010.50
2019-01-02T02:16:48.255Z,1010.43
2019-01-02T02:17:48.239Z,1010.44
2019-01-02T02:18:48.274Z,1010.49
2019-01-02T02:19:48.185Z,1010.49
2019-01-02T02:20:48.183Z,1010.56
2019-01-02T02:21:48.161Z,1010.54
2019-01-02T02:22:48.218Z,1010.67
2019-01-02T02:23:48.141Z,1010.59
2019-01-02T02:24:48.147Z,1010.44
2019-01-02T02:25:48.124Z,1010.54
2019-01-02T02:26:48.137Z,1010.58
2019-01-02T02:27:48.101Z,1010.55
2019-01-02T02:28:48.108Z,1010.58
2019-01-02T02:29:48.096Z,1010.65
2019-01-02T02:30:48.154Z,1010.61
2019-01-02T02:31:48.063Z,1010.55
2019-01-02T02:32:48.047Z,1010.71
2019-01-02T02:33:48.057Z,1010.51
2019-01-02T02:34:48.020Z,1010.56
2019-01-02T02:35:48.026Z,1010.67
2019-01-02T02:36:48.000Z,1010.65
2019-01-02T02:37:47.995Z,1010.70
2019-01-02T02:38:47.996Z,1010.64
2019-01-02T02:39:47.994Z,1010.73
2019-01-02T02:40:47.982Z,1010.77
2019-01-02T02:41:47.947Z,1010.66
2019-01-02T02:42:48.607Z,1010.77
2019-01-02T02:43:47.948Z,1010.77
2019-01-02T02:44:47.929Z,1010.71
2019-01-02T02:45:48.057Z,1010.80
2019-01-02T02:46:47.918Z,1010.71
2019-01-02T02:47:47.919Z,1010.70
2019-01-02T02:48:48.153Z,1010.69
2019-01-02T02:49:47.932Z,1010.61
2019-01-02T02:50:47.857Z,1010.76
2019-01-02T02:51:48.188Z,1010.75
2019-01-02T02:52:47.854Z,1010.71
2019-01-02T02:53:47.821Z,1010.73
2019-01-02T02:54:47.813Z,1010.68
2019-01-02T02:55:47.803Z,1010.77
2019-01-02T02:56:47.806Z,1010.69
2019-01-02T02:57:47.787Z,1010.67
2019-01-02T02:58:47.807Z,1010.68
2019-01-02T02:59:47.756Z,1010.78
2019-01-02T03:00:48.278Z,1010.68
2019-01-02T03:01:47.831Z,1010.75
2019-01-02T03:02:47.742Z,1010.66
2019-01-02T03:03:47.726Z,1010.62
2019-01-02T03:04:47.721Z,1010.68
2019-01-02T03:05:47.685Z,1010.68
2019-01-02T03:06:48.545Z,1010.76
2019-01-02T03:07:48.905Z,1010.69
2019-01-02T03:08:47.762Z,1010.76
2019-01-02T03:09:47.742Z,1010.74
2019-01-02T03:10:47.720Z,1010.72
2019-01-02T03:11:47.627Z,1010.74
2019-01-02T03:12:47.625Z,1010.83
2019-01-02T03:13:47.838Z,1010.80
2019-01-02T03:14:47.611Z,1010.88
2019-01-02T03:15:47.612Z,1010.98
2019-01-02T03:16:47.654Z,1010.81
2019-01-02T03:17:47.560Z,1010.82
2019-01-02T03:18:47.552Z,1010.89
2019-01-02T03:19:47.550Z,1010.99
2019-01-02T03:20:47.537Z,1010.93
2019-01-02T03:21:47.531Z,1010.84
2019-01-02T03:22:47.543Z,1010.99
2019-01-02T03:23:47.506Z,1010.88
2019-01-02T03:24:47.490Z,1011.03
2019-01-02T03:25:47.483Z,1011.08
2019-01-02T03:26:47.473Z,1011.09
2019-01-02T03:27:47.589Z,1011.10
2019-01-02T03:28:47.446Z,1011.14
2019-01-02T03:29:47.453Z,1011.09
2019-01-02T03:30:47.583Z,1011.03
2019-01-02T03:31:47.422Z,1011.11
2019-01-02T03:32:47.704Z,1011.05
2019-01-02T03:33:47.415Z,1011.17
2019-01-02T03:34:47.385Z,1011.18
2019-01-02T03:35:47.375Z,1011.27
2019-01-02T03:36:47.364Z,1011.22
2019-01-02T03:37:47.393Z,1011.29
2019-01-02T03:38:47.350Z,1011.32
2019-01-02T03:39:47.350Z,1011.32
2019-01-02T03:40:47.322Z,1011.35
2019-01-02T03:41:47.321Z,1011.40
2019-01-02T03:42:47.297Z,1011.38
2019-01-02T03:43:47.310Z,1011.28
2019-01-02T03:44:47.290Z,1011.40
2019-01-02T03:45:47.282Z,1011.40
2019-01-02T03:46:47.253Z,1011.50
2019-01-02T03:47:47.258Z,1011.33
2019-01-02T03:48:47.238Z,1011.34
2019-01-02T03:49:47.224Z,1011.27
2019-01-02T03:50:47.234Z,1011.33
2019-01-02T03:51:47.216Z,1011.44
2019-01-02T03:52:47.197Z,1011.32
2019-01-02T03:53:47.182Z,1011.37
2019-01-02T03:54:47.178Z,1011.34
2019-01-02T03:55:47.168Z,1011.40
2019-01-02T03:56:47.150Z,1011.37
2019-01-02T03:57:47.129Z,1011.32
2019-01-02T03:58:47.123Z,1011.28
2019-01-02T03:59:47.112Z,1011.30
2019-01-02T04:00:47.099Z,1011.36
2019-01-02T04:01:47.085Z,1011.38
2019-01-02T04:02:47.077Z,1011.39
2019-01-02T04:03:47.073Z,1011.42
2019-01-02T04:04:47.061Z,1011.39
2019-01-02T04:05:47.045Z,1011.43
2019-01-02T04:06:47.040Z,1011.36
2019-01-02T04:07:47.023Z,1011.40
2019-01-02T04:08:47.010Z,1011.42
2019-01-02T04:09:46.997Z,1011.36
2019-01-02T04:10:46.990Z,1011.44
2019-01-02T04:11:46.981Z,1011.49
2019-01-02T04:12:46.970Z,1011.48
2019-01-02T04:13:46.959Z,1011.45
2019-01-02T04:14:46.949Z,1011.47
2019-01-02T04:15:46.941Z,1011.48
2019-01-02T04:16:46.925Z,1011.49
2019-01-02T04:17:46.920Z,1011.53
2019-01-02T04:18:46.913Z,1011.54
2019-01-02T04:19:46.899Z,1011.56
2019-01-02T04:20:46.889Z,1011.56
2019-01-02T04:21:46.904Z,1011.52
2019-01-02T04:22:46.871Z,1011.57
2019-01-02T04:23:46.909Z,1011.64
2019-01-02T04:24:46.857Z,1011.66
2019-01-02T04:25:46.842Z,1011.61
2019-01-02T04:26:46.838Z,1011.67
2019-01-02T04:27:46.827Z,1011.66
2019-01-02T04:28:46.807Z,1011.67
2019-01-02T04:29:46.797Z,1011.82
2019-01-02T04:30:46.779Z,1011.74
2019-01-02T04:31:46.770Z,1011.84
2019-01-02T04:32:46.766Z,1011.78
2019-01-02T04:33:46.758Z,1011.83
2019-01-02T04:34:46.743Z,1011.77
2019-01-02T04:35:46.726Z,1011.86
2019-01-02T04:36:46.712Z,1011.88
2019-01-02T04:37:46.704Z,1011.88
2019-01-02T04:38:46.702Z,1011.96
2019-01-02T04:39:46.691Z,1011.84
2019-01-02T04:40:46.676Z,1012.04
2019-01-02T04:41:46.659Z,1011.95
2019-01-02T04:42:46.654Z,1011.99
2019-01-02T04:43:46.645Z,1011.95
2019-01-02T04:44:46.629Z,1011.95
2019-01-02T04:45:46.631Z,1011.99
2019-01-02T04:46:46.618Z,1012.10
2019-01-02T04:47:46.626Z,1012.05
2019-01-02T04:48:46.623Z,1012.12
2019-01-02T04:49:46.586Z,1011.99
2019-01-02T04:50:46.574Z,1012.09
2019-01-02T04:51:46.559Z,1012.10
2019-01-02T04:52:46.545Z,1012.18
2019-01-02T04:53:46.581Z,1012.18
2019-01-02T04:54:46.539Z,1012.19
2019-01-02T04:55:46.525Z,1012.11
2019-01-02T04:56:46.513Z,1012.13
2019-01-02T04:57:46.525Z,1012.15
2019-01-02T04:58:46.509Z,1012.17
2019-01-02T04:59:46.526Z,1012.18
2019-01-02T05:00:46.475Z,1012.24
2019-01-02T05:01:46.584Z,1012.31
2019-01-02T05:02:46.487Z,1012.24
2019-01-02T05:03:46.583Z,1012.28
2019-01-02T05:04:46.442Z,1012.40
2019-01-02T05:05:46.494Z,1012.29
2019-01-02T05:06:46.415Z,1012.21
2019-01-02T05:07:46.400Z,1012.21
2019-01-02T05:08:46.389Z,1012.31
2019-01-02T05:09:46.398Z,1012.29
2019-01-02T05:10:46.463Z,1012.27
2019-01-02T05:11:46.417Z,1012.37
2019-01-02T05:12:46.354Z,1012.39
2019-01-02T05:13:46.340Z,1012.39
2019-01-02T05:14:46.338Z,1012.39
2019-01-02T05:15:46.348Z,1012.45
2019-01-02T05:16:46.304Z,1012.44
2019-01-02T05:17:46.297Z,1012.41
2019-01-02T05:18:46.276Z,1012.45
2019-01-02T05:19:46.271Z,1012.37
2019-01-02T05:20:46.257Z,1012.41
2019-01-02T05:21:46.257Z,1012.46
2019-01-02T05:22:46.238Z,1012.48
2019-01-02T05:23:46.219Z,1012.53
2019-01-02T05:24:46.217Z,1012.55
2019-01-02T05:25:46.210Z,1012.58
2019-01-02T05:26:46.197Z,1012.59
2019-01-02T05:27:46.184Z,1012.53
2019-01-02T05:28:46.176Z,1012.61
2019-01-02T05:29:46.166Z,1012.56
2019-01-02T05:30:46.159Z,1012.59
2019-01-02T05:31:46.151Z,1012.60
2019-01-02T05:32:46.139Z,1012.68
2019-01-02T05:33:46.155Z,1012.68
2019-01-02T05:34:46.136Z,1012.75
2019-01-02T05:35:46.106Z,1012.65
2019-01-02T05:36:46.095Z,1012.66
2019-01-02T05:37:46.091Z,1012.74
2019-01-02T05:38:46.115Z,1012.71
2019-01-02T05:39:46.072Z,1012.73
2019-01-02T05:40:46.045Z,1012.77
2019-01-02T05:41:46.038Z,1012.83
2019-01-02T05:42:46.026Z,1012.89
2019-01-02T05:43:46.026Z,1012.80
2019-01-02T05:44:46.029Z,1012.84
2019-01-02T05:45:46.007Z,1012.89
2019-01-02T05:46:46.006Z,1012.85
2019-01-02T05:47:45.975Z,1012.95
2019-01-02T05:48:45.970Z,1012.95
2019-01-02T05:49:45.959Z,1012.96
2019-01-02T05:50:45.944Z,1012.92
2019-01-02T05:51:45.946Z,1013.03
2019-01-02T05:52:45.921Z,1013.04
2019-01-02T05:53:45.903Z,1013.10
2019-01-02T05:54:45.896Z,1013.11
2019-01-02T05:55:45.889Z,1013.01
2019-01-02T05:56:45.909Z,1013.23
2019-01-02T05:57:45.906Z,1013.16
2019-01-02T05:58:45.905Z,1013.17
2019-01-02T05:59:45.946Z,1013.24
2019-01-02T06:00:45.838Z,1013.19
2019-01-02T06:01:45.833Z,1013.28
2019-01-02T06:02:45.827Z,1013.22
2019-01-02T06:03:45.840Z,1013.21
2019-01-02T06:04:45.792Z,1013.17
2019-01-02T06:05:45.780Z,1013.27
2019-01-02T06:06:45.901Z,1013.33
2019-01-02T06:07:45.767Z,1013.29
2019-01-02T06:08:45.772Z,1013.30
2019-01-02T06:09:45.771Z,1013.40
2019-01-02T06:10:45.732Z,1013.33
2019-01-02T06:11:45.723Z,1013.36
2019-01-02T06:12:45.715Z,1013.42
2019-01-02T06:13:45.698Z,1013.46
2019-01-02T06:14:45.711Z,1013.48
2019-01-02T06:15:45.707Z,1013.49
2019-01-02T06:16:45.663Z,1013.52
2019-01-02T06:17:45.650Z,1013.57
2019-01-02T06:18:45.644Z,1013.51
2019-01-02T06:19:45.632Z,1013.56
2019-01-02T06:20:45.641Z,1013.54
2019-01-02T06:21:45.608Z,1013.61
2019-01-02T06:22:45.595Z,1013.57
2019-01-02T06:23:45.586Z,1013.57
2019-01-02T06:24:45.587Z,1013.53
2019-01-02T06:25:45.580Z,1013.54
2019-01-02T06:26:45.573Z,1013.66
2019-01-02T06:27:45.554Z,1013.72
2019-01-02T06:28:45.558Z,1013.76
2019-01-02T06:29:45.529Z,1013.68
2019-01-02T06:30:45.543Z,1013.70
2019-01-02T06:31:45.520Z,1013.69
2019-01-02T06:32:45.497Z,1013.66
2019-01-02T06:33:45.531Z,1013.74
2019-01-02T06:34:45.543Z,1013.80
2019-01-02T06:35:45.467Z,1013.77
2019-01-02T06:36:45.471Z,1013.79
2019-01-02T06:37:45.475Z,1013.87
2019-01-02T06:38:45.437Z,1013.86
2019-01-02T06:39:45.477Z,1013.87
2019-01-02T06:40:45.435Z,1013.94
2019-01-02T06:41:45.409Z,1013.94
2019-01-02T06:42:45.403Z,1013.91
2019-01-02T06:43:45.392Z,1014.09
2019-01-02T06:44:45.373Z,1014.00
2019-01-02T06:45:45.358Z,1014.05
2019-01-02T06:46:45.350Z,1014.02
2019-01-02T06:47:45.332Z,1014.12
2019-01-02T06:48:45.328Z,1014.11
2019-01-02T06:49:45.313Z,1014.12
2019-01-02T06:50:45.303Z,1014.18
2019-01-02T06:51:45.295Z,1014.15
2019-01-02T06:52:45.279Z,1014.12
2019-01-02T06:53:45.277Z,1014.18
2019-01-02T06:54:45.267Z,1014.18
2019-01-02T06:55:45.276Z,1014.19
2019-01-02T06:56:45.240Z,1014.29
2019-01-02T06:57:45.306Z,1014.27
2019-01-02T06:58:45.237Z,1014.24
2019-01-02T06:59:45.227Z,1014.32
2019-01-02T07:00:45.222Z,1014.37
2019-01-02T07:01:45.205Z,1014.37
2019-01-02T07:02:45.188Z,1014.33
2019-01-02T07:03:45.187Z,1014.38
2019-01-02T07:04:45.176Z,1014.46
2019-01-02T07:05:45.161Z,1014.55
2019-01-02T07:06:45.144Z,1014.48
2019-01-02T07:07:45.130Z,1014.54
2019-01-02T07:08:45.110Z,1014.55
2019-01-02T07:09:45.116Z,1014.58
2019-01-02T07:10:45.091Z,1014.55
2019-01-02T07:11:45.084Z,1014.59
2019-01-02T07:12:45.098Z,1014.68
2019-01-02T07:13:45.062Z,1014.64
2019-01-02T07:14:45.069Z,1014.66
2019-01-02T07:15:45.097Z,1014.68
2019-01-02T07:16:45.032Z,1014.73
2019-01-02T07:17:45.032Z,1014.69
2019-01-02T07:18:45.021Z,1014.69
2019-01-02T07:19:45.036Z,1014.76
2019-01-02T07:20:44.996Z,1014.82
2019-01-02T07:21:44.994Z,1014.88
2019-01-02T07:22:44.981Z,1014.92
2019-01-02T07:23:45.003Z,1014.88
2019-01-02T07:24:44.995Z,1014.87
2019-01-02T07:25:44.951Z,1014.89
2019-01-02T07:26:44.956Z,1014.89
2019-01-02T07:27:44.982Z,1015.03
2019-01-02T07:28:44.912Z,1014.96
2019-01-02T07:29:44.902Z,1014.99
2019-01-02T07:30:44.906Z,1015.06
2019-01-02T07:31:44.883Z,1015.03
2019-01-02T07:32:44.867Z,1015.23
2019-01-02T07:33:44.859Z,1015.10
2019-01-02T07:34:44.856Z,1015.17
2019-01-02T07:35:44.835Z,1015.20
2019-01-02T07:36:44.827Z,1015.15
2019-01-02T07:37:44.971Z,1015.13
2019-01-02T07:38:44.813Z,1015.06
2019-01-02T07:39:44.795Z,1015.17
2019-01-02T07:40:44.797Z,1015.23
2019-01-02T07:41:44.817Z,1015.26
2019-01-02T07:42:44.770Z,1015.27
2019-01-02T07:43:44.767Z,1015.26
2019-01-02T07:44:44.861Z,1015.25
2019-01-02T07:45:44.738Z,1015.40
2019-01-02T07:46:44.766Z,1015.26
2019-01-02T07:47:44.737Z,1015.34
2019-01-02T07:48:44.733Z,1015.41
2019-01-02T07:49:44.695Z,1015.43
2019-01-02T07:50:44.787Z,1015.40
2019-01-02T07:51:44.687Z,1015.47
2019-01-02T07:52:44.675Z,1015.49
2019-01-02T07:53:44.669Z,1015.47
2019-01-02T07:54:44.641Z,1015.55
2019-01-02T07:55:44.637Z,1015.56
2019-01-02T07:56:44.645Z,1015.61
2019-01-02T07:57:44.691Z,1015.65
2019-01-02T07:58:44.610Z,1015.61
2019-01-02T07:59:44.609Z,1015.61
2019-01-02T08:00:44.613Z,1015.73
2019-01-02T08:01:44.561Z,1015.70
2019-01-02T08:02:44.569Z,1015.71
2019-01-02T08:03:44.554Z,1015.78
2019-01-02T08:04:44.543Z,1015.80
2019-01-02T08:05:44.582Z,1015.84
2019-01-02T08:06:44.521Z,1015.91
2019-01-02T08:07:44.571Z,1015.87
2019-01-02T08:08:44.493Z,1015.91
2019-01-02T08:09:44.487Z,1015.90
2019-01-02T08:10:44.491Z,1015.81
2019-01-02T08:11:44.495Z,1015.82
2019-01-02T08:12:44.449Z,1016.00
2019-01-02T08:13:44.455Z,1015.94
2019-01-02T08:14:44.425Z,1016.15
2019-01-02T08:15:44.413Z,1016.07
2019-01-02T08:16:44.426Z,1015.94
2019-01-02T08:17:44.411Z,1016.03
2019-01-02T08:18:44.731Z,1016.15
2019-01-02T08:19:44.380Z,1016.11
2019-01-02T08:20:44.392Z,1016.22
2019-01-02T08:21:44.372Z,1016.16
2019-01-02T08:22:44.386Z,1016.24
2019-01-02T08:23:44.361Z,1016.26
2019-01-02T08:24:44.358Z,1016.26
2019-01-02T08:25:44.318Z,1016.30
2019-01-02T08:26:44.304Z,1016.22
2019-01-02T08:27:44.299Z,1016.25
2019-01-02T08:28:44.310Z,1016.25
2019-01-02T08:29:44.317Z,1016.25
2019-01-02T08:30:44.265Z,1016.29
2019-01-02T08:31:44.248Z,1016.36
2019-01-02T08:32:44.240Z,1016.32
2019-01-02T08:33:44.254Z,1016.30
2019-01-02T08:34:44.252Z,1016.43
2019-01-02T08:35:44.235Z,1016.40
2019-01-02T08:36:44.204Z,1016.48
2019-01-02T08:37:44.184Z,1016.51
2019-01-02T08:38:44.182Z,1016.50
2019-01-02T08:39:44.179Z,1016.52
2019-01-02T08:40:44.186Z,1016.60
2019-01-02T08:41:44.203Z,1016.56
2019-01-02T08:42:44.136Z,1016.57
2019-01-02T08:43:44.140Z,1016.63
2019-01-02T08:44:44.200Z,1016.67
2019-01-02T08:45:44.140Z,1016.71
2019-01-02T08:46:44.126Z,1016.68
2019-01-02T08:47:44.131Z,1016.69
2019-01-02T08:48:44.082Z,1016.70
2019-01-02T08:49:44.080Z,1016.71
2019-01-02T08:50:44.052Z,1016.80
2019-01-02T08:51:44.055Z,1016.78
2019-01-02T08:52:44.062Z,1016.74
2019-01-02T08:53:44.053Z,1016.84
2019-01-02T08:54:44.101Z,1016.85
2019-01-02T08:55:43.994Z,1016.90
2019-01-02T08:56:44.002Z,1016.85
2019-01-02T08:57:43.991Z,1016.90
2019-01-02T08:58:43.983Z,1016.90
2019-01-02T08:59:44.031Z,1016.95
2019-01-02T09:00:43.944Z,1016.96
2019-01-02T09:01:43.946Z,1017.02
2019-01-02T09:02:43.937Z,1017.11
2019-01-02T09:03:43.946Z,1017.16
2019-01-02T09:04:43.955Z,1017.22
2019-01-02T09:05:43.911Z,1017.28
2019-01-02T09:06:43.897Z,1017.32
2019-01-02T09:07:43.869Z,1017.46
2019-01-02T09:08:43.962Z,1017.49
2019-01-02T09:09:43.865Z,1017.65
2019-01-02T09:10:43.920Z,1017.65
2019-01-02T09:11:43.863Z,1017.76
2019-01-02T09:12:43.823Z,1017.67
2019-01-02T09:13:43.808Z,1017.79
2019-01-02T09:14:43.813Z,1017.82
2019-01-02T09:15:43.810Z,1017.86
2019-01-02T09:16:43.780Z,1017.87
2019-01-02T09:17:43.775Z,1017.85
2019-01-02T09:18:43.758Z,1017.83
2019-01-02T09:19:43.760Z,1017.86
2019-01-02T09:20:43.745Z,1017.92
2019-01-02T09:21:43.738Z,1017.96
2019-01-02T09:22:43.724Z,1017.98
2019-01-02T09:23:43.738Z,1017.99
2019-01-02T09:24:43.815Z,1018.00
2019-01-02T09:25:43.693Z,1018.06
2019-01-02T09:26:43.685Z,1018.10
2019-01-02T09:27:43.699Z,1018.12
2019-01-02T09:28:43.680Z,1018.03
2019-01-02T09:29:43.707Z,1018.13
2019-01-02T09:30:43.630Z,1018.14
2019-01-02T09:31:43.636Z,1018.24
2019-01-02T09:32:43.620Z,1018.12
2019-01-02T09:33:43.621Z,1018.16
2019-01-02T09:34:43.590Z,1018.20
2019-01-02T09:35:43.624Z,1018.11
2019-01-02T09:36:43.588Z,1018.18
2019-01-02T09:37:43.564Z,1018.14
2019-01-02T09:38:43.549Z,1018.15
2019-01-02T09:39:43.534Z,1018.18
2019-01-02T09:40:43.646Z,1018.24
2019-01-02T09:41:43.522Z,1018.20
2019-01-02T09:42:43.520Z,1018.22
2019-01-02T09:43:43.509Z,1018.25
2019-01-02T09:44:43.484Z,1018.24
2019-01-02T09:45:43.481Z,1018.26
2019-01-02T09:46:43.469Z,1018.29
2019-01-02T09:47:43.476Z,1018.32
2019-01-02T09:48:43.441Z,1018.33
2019-01-02T09:49:43.446Z,1018.34
2019-01-02T09:50:43.427Z,1018.35
2019-01-02T09:51:43.411Z,1018.43
2019-01-02T09:52:43.409Z,1018.32
2019-01-02T09:53:43.388Z,1018.38
2019-01-02T09:54:43.457Z,1018.46
2019-01-02T09:55:43.430Z,1018.39
2019-01-02T09:56:43.360Z,1018.42
2019-01-02T09:57:43.345Z,1018.46
2019-01-02T09:58:43.345Z,1018.44
2019-01-02T09:59:43.339Z,1018.44
2019-01-02T10:00:43.421Z,1018.47
2019-01-02T10:01:43.321Z,1018.50
2019-01-02T10:02:43.302Z,1018.47
2019-01-02T10:03:43.335Z,1018.45
2019-01-02T10:04:43.275Z,1018.49
2019-01-02T10:05:43.263Z,1018.51
2019-01-02T10:06:43.262Z,1018.54
2019-01-02T10:07:43.255Z,1018.55
2019-01-02T10:08:43.229Z,1018.55
2019-01-02T10:09:43.216Z,1018.59
2019-01-02T10:10:43.215Z,1018.56
2019-01-02T10:11:43.205Z,1018.56
2019-01-02T10:12:43.243Z,1018.56
2019-01-02T10:13:43.185Z,1018.62
2019-01-02T10:14:43.169Z,1018.69
2019-01-02T10:15:43.150Z,1018.64
2019-01-02T10:16:43.155Z,1018.60
2019-01-02T10:17:43.135Z,1018.64
2019-01-02T10:18:43.139Z,1018.62
2019-01-02T10:19:43.112Z,1018.67
2019-01-02T10:20:44.052Z,1018.67
2019-01-02T10:21:43.100Z,1018.72
2019-01-02T10:22:43.099Z,1018.69
2019-01-02T10:23:43.069Z,1018.68
2019-01-02T10:24:43.056Z,1018.67
2019-01-02T10:25:44.322Z,1018.67
2019-01-02T10:26:43.034Z,1018.61
2019-01-02T10:27:43.027Z,1018.67
2019-01-02T10:28:43.010Z,1018.69
2019-01-02T10:29:43.001Z,1018.75
2019-01-02T10:30:42.989Z,1018.76
2019-01-02T10:31:42.986Z,1018.74
2019-01-02T10:32:42.966Z,1018.76
2019-01-02T10:33:42.956Z,1018.77
2019-01-02T10:34:43.090Z,1018.79
2019-01-02T10:35:42.946Z,1018.74
2019-01-02T10:36:42.948Z,1018.79
2019-01-02T10:37:42.926Z,1018.82
2019-01-02T10:38:42.911Z,1018.78
2019-01-02T10:39:42.902Z,1018.82
2019-01-02T10:40:42.905Z,1018.86
2019-01-02T10:41:42.872Z,1018.83
2019-01-02T10:42:42.877Z,1018.93
2019-01-02T10:43:42.862Z,1018.90
2019-01-02T10:44:42.933Z,1018.92
2019-01-02T10:45:42.832Z,1018.97
2019-01-02T10:46:42.828Z,1018.93
2019-01-02T10:47:42.842Z,1019.01
2019-01-02T10:48:42.800Z,1018.97
2019-01-02T10:49:42.790Z,1019.01
2019-01-02T10:50:42.782Z,1018.97
2019-01-02T10:51:42.829Z,1019.03
2019-01-02T10:52:42.767Z,1019.08
2019-01-02T10:53:42.758Z,1019.08
2019-01-02T10:54:42.760Z,1019.07
2019-01-02T10:55:42.728Z,1019.03
2019-01-02T10:56:42.718Z,1019.08
2019-01-02T10:57:42.699Z,1019.11
2019-01-02T10:58:42.706Z,1019.05
2019-01-02T10:59:42.706Z,1019.09
2019-01-02T11:00:42.699Z,1019.15
2019-01-02T11:01:43.248Z,1019.16
2019-01-02T11:02:42.659Z,1019.16
2019-01-02T11:03:42.672Z,1019.16
2019-01-02T11:04:42.683Z,1019.12
2019-01-02T11:05:42.638Z,1019.22
2019-01-02T11:06:42.659Z,1019.21
2019-01-02T11:07:42.660Z,1019.18
2019-01-02T11:08:42.623Z,1019.16
2019-01-02T11:09:42.607Z,1019.24
2019-01-02T11:10:42.635Z,1019.19
2019-01-02T11:11:42.573Z,1019.20
2019-01-02T11:12:42.562Z,1019.25
2019-01-02T11:13:42.607Z,1019.24
2019-01-02T11:14:42.593Z,1019.28
2019-01-02T11:15:42.533Z,1019.27
2019-01-02T11:16:42.517Z,1019.30
2019-01-02T11:17:42.519Z,1019.30
2019-01-02T11:18:42.503Z,1019.35
2019-01-02T11:19:42.493Z,1019.24
2019-01-02T11:20:42.477Z,1019.36
2019-01-02T11:21:42.526Z,1019.32
2019-01-02T11:22:43.006Z,1019.32
2019-01-02T11:23:42.516Z,1019.28
2019-01-02T11:24:42.617Z,1019.31
2019-01-02T11:25:42.415Z,1019.32
2019-01-02T11:26:42.409Z,1019.33
2019-01-02T11:27:42.426Z,1019.33
2019-01-02T11:28:42.394Z,1019.40
2019-01-02T11:29:42.376Z,1019.36
2019-01-02T11:30:42.380Z,1019.37
2019-01-02T11:31:42.364Z,1019.39
2019-01-02T11:32:42.364Z,1019.42
2019-01-02T11:33:42.343Z,1019.46
2019-01-02T11:34:42.343Z,1019.44
2019-01-02T11:35:42.346Z,1019.47
2019-01-02T11:36:42.305Z,1019.44
2019-01-02T11:37:42.292Z,1019.43
2019-01-02T11:38:42.302Z,1019.56
2019-01-02T11:39:42.290Z,1019.49
2019-01-02T11:40:42.275Z,1019.53
2019-01-02T11:41:42.260Z,1019.54
2019-01-02T11:42:42.304Z,1019.60
2019-01-02T11:43:42.234Z,1019.55
2019-01-02T11:44:42.236Z,1019.57
2019-01-02T11:45:42.241Z,1019.54
2019-01-02T11:46:42.209Z,1019.54
2019-01-02T11:47:42.213Z,1019.59
2019-01-02T11:48:42.183Z,1019.50
2019-01-02T11:49:42.164Z,1019.66
2019-01-02T11:50:42.161Z,1019.58
2019-01-02T11:51:42.340Z,1019.57
2019-01-02T11:52:42.142Z,1019.69
2019-01-02T11:53:42.132Z,1019.54
2019-01-02T11:54:42.110Z,1019.81
2019-01-02T11:55:42.104Z,1019.70
2019-01-02T11:56:42.116Z,1019.59
2019-01-02T11:57:42.130Z,1019.63
2019-01-02T11:58:42.070Z,1019.80
2019-01-02T11:59:42.086Z,1019.77
2019-01-02T12:00:42.046Z,1019.74
2019-01-02T12:01:42.059Z,1019.71
2019-01-02T12:02:42.040Z,1019.84
2019-01-02T12:03:42.035Z,1019.75
2019-01-02T12:04:42.006Z,1019.82
2019-01-02T12:05:41.991Z,1019.82